createdAt,value
2022-12-05T00:01:42.541Z,95.50
2022-12-05T00:04:17.090Z,95.50
2022-12-05T00:06:47.941Z,95.40
2022-12-05T00:09:21.663Z,95.20
2022-12-05T00:11:53.160Z,95.50
2022-12-05T00:14:23.832Z,95.30
2022-12-05T00:16:54.792Z,95.30
2022-12-05T00:19:25.375Z,95.40
2022-12-05T00:21:55.737Z,95.10
2022-12-05T00:24:26.602Z,95.50
2022-12-05T00:26:58.424Z,95.40
2022-12-05T00:29:29.104Z,95.60
2022-12-05T00:31:59.833Z,95.50
2022-12-05T00:34:30.568Z,95.40
2022-12-05T00:37:01.214Z,95.20
2022-12-05T00:39:31.872Z,95.30
2022-12-05T00:42:02.292Z,95.20
2022-12-05T00:44:32.975Z,95.60
2022-12-05T00:47:03.367Z,95.40
2022-12-05T00:49:33.798Z,95.50
2022-12-05T00:52:04.530Z,94.70
2022-12-05T00:54:35.047Z,95.20
2022-12-05T00:57:05.536Z,95.10
2022-12-05T00:59:36.115Z,95.70
2022-12-05T01:02:06.603Z,95.80
2022-12-05T01:04:36.942Z,95.60
2022-12-05T01:07:07.923Z,95.40
2022-12-05T01:09:38.603Z,95.60
2022-12-05T01:12:09.379Z,95.70
2022-12-05T01:14:40.019Z,95.50
2022-12-05T01:17:11.526Z,95.60
2022-12-05T01:19:42.010Z,95.60
2022-12-05T01:22:12.421Z,95.70
2022-12-05T01:27:26.330Z,95.20
2022-12-05T01:29:57.294Z,95.90
2022-12-05T01:32:28.211Z,95.20
2022-12-05T01:34:59.057Z,94.80
2022-12-05T01:37:30.586Z,95.40
2022-12-05T01:40:01.403Z,95.20
2022-12-05T01:42:33.474Z,94.80
2022-12-05T01:45:16.481Z,95.20
2022-12-05T01:47:47.356Z,95.60
2022-12-05T01:50:17.882Z,95.10
2022-12-05T01:52:48.679Z,95.50
2022-12-05T01:55:21.509Z,95.30
2022-12-05T01:58:11.801Z,95.30
2022-12-05T02:01:05.931Z,95.20
2022-12-05T02:03:39.355Z,95.20
2022-12-05T02:06:10.897Z,95.60
2022-12-05T02:08:43.229Z,95.50
2022-12-05T02:11:14.087Z,95.40
2022-12-05T02:13:56.326Z,95.20
2022-12-05T02:16:44.633Z,95.40
2022-12-05T02:19:39.261Z,94.90
2022-12-05T02:22:35.761Z,95.00
2022-12-05T02:25:20.256Z,95.30
2022-12-05T02:28:37.449Z,95.00
2022-12-05T02:31:56.137Z,95.00
2022-12-05T02:34:36.686Z,95.20
2022-12-05T02:37:27.946Z,95.40
2022-12-05T02:40:20.268Z,95.30
2022-12-05T02:43:03.259Z,95.00
2022-12-05T02:45:38.686Z,94.80
2022-12-05T02:48:10.368Z,95.10
2022-12-05T02:51:05.754Z,95.20
2022-12-05T02:53:39.468Z,94.60
2022-12-05T02:56:10.487Z,94.90
2022-12-05T02:58:56.360Z,95.30
2022-12-05T03:01:30.423Z,95.30
2022-12-05T03:04:04.483Z,95.10
2022-12-05T03:06:36.949Z,95.10
2022-12-05T03:09:12.361Z,94.90
2022-12-05T03:11:51.090Z,94.80
2022-12-05T03:14:35.251Z,95.00
2022-12-05T03:17:19.634Z,95.30
2022-12-05T03:19:55.030Z,94.80
2022-12-05T03:22:53.050Z,94.60
2022-12-05T03:25:30.979Z,94.80
2022-12-05T03:28:35.227Z,95.20
2022-12-05T03:31:12.108Z,95.00
2022-12-05T03:33:49.974Z,94.80
2022-12-05T03:36:30.523Z,94.60
2022-12-05T03:39:19.532Z,94.20
2022-12-05T03:42:01.566Z,94.90
2022-12-05T03:45:14.247Z,94.70
2022-12-05T03:48:01.624Z,94.50
2022-12-05T03:50:32.554Z,94.70
2022-12-05T03:53:21.245Z,94.80
2022-12-05T03:56:00.422Z,94.60
2022-12-05T03:59:03.396Z,94.90
2022-12-05T04:01:38.582Z,94.80
2022-12-05T04:04:17.351Z,94.90
2022-12-05T04:06:52.525Z,94.60
2022-12-05T04:09:46.743Z,94.90
2022-12-05T04:12:30.654Z,94.80
2022-12-05T04:15:10.125Z,94.60
2022-12-05T04:17:53.410Z,94.70
2022-12-05T04:20:59.060Z,94.10
2022-12-05T04:23:30.405Z,94.90
2022-12-05T04:26:26.002Z,94.60
2022-12-05T04:29:10.056Z,94.60
2022-12-05T04:31:46.092Z,94.80
2022-12-05T04:34:20.327Z,94.80
2022-12-05T04:37:15.138Z,94.80
2022-12-05T04:40:05.695Z,94.60
2022-12-05T04:42:38.233Z,94.30
2022-12-05T04:45:11.839Z,94.60
2022-12-05T04:47:51.375Z,94.30
2022-12-05T04:50:23.157Z,94.80
2022-12-05T04:53:15.254Z,94.50
2022-12-05T04:55:49.734Z,94.60
2022-12-05T04:58:27.075Z,94.90
2022-12-05T05:01:25.175Z,94.80
2022-12-05T05:04:18.774Z,94.70
2022-12-05T05:06:49.724Z,94.70
2022-12-05T05:09:21.637Z,94.60
2022-12-05T05:11:52.341Z,94.70
2022-12-05T05:14:22.992Z,94.70
2022-12-05T05:16:57.293Z,94.60
2022-12-05T05:19:28.049Z,94.60
2022-12-05T05:21:58.878Z,94.60
2022-12-05T05:24:29.416Z,94.60
2022-12-05T05:26:59.880Z,94.60
2022-12-05T05:29:32.721Z,94.70
2022-12-05T05:32:26.519Z,94.30
2022-12-05T05:34:57.274Z,94.70
2022-12-05T05:37:28.068Z,94.60
2022-12-05T05:39:58.576Z,94.70
2022-12-05T05:42:29.197Z,94.70
2022-12-05T05:45:02.355Z,94.60
2022-12-05T05:47:52.979Z,94.60
2022-12-05T05:50:23.653Z,94.50
2022-12-05T05:52:54.061Z,94.70
2022-12-05T05:55:24.806Z,94.60
2022-12-05T05:57:55.275Z,94.60
2022-12-05T06:00:27.094Z,94.60
2022-12-05T06:02:58.217Z,94.60
2022-12-05T06:05:28.917Z,94.60
2022-12-05T06:07:59.542Z,94.50
2022-12-05T06:10:31.613Z,94.60
2022-12-05T06:13:02.617Z,94.60
2022-12-05T06:15:33.312Z,94.60
2022-12-05T06:18:04.098Z,94.60
2022-12-05T06:20:34.777Z,94.70
2022-12-05T06:23:05.242Z,94.60
2022-12-05T06:25:36.132Z,94.70
2022-12-05T06:28:07.028Z,94.70
2022-12-05T06:30:39.843Z,95.00
2022-12-05T06:33:10.335Z,94.70
2022-12-05T06:35:40.804Z,94.70
2022-12-05T06:38:12.119Z,94.70
2022-12-05T06:40:44.827Z,94.70
2022-12-05T06:43:15.170Z,94.70
2022-12-05T06:45:46.322Z,94.70
2022-12-05T06:48:18.878Z,94.70
2022-12-05T06:50:54.271Z,94.60
2022-12-05T06:53:44.745Z,94.60
2022-12-05T06:56:20.952Z,94.70
2022-12-05T06:58:53.745Z,94.60
2022-12-05T07:01:42.630Z,94.70
2022-12-05T07:04:25.839Z,94.60
2022-12-05T07:06:57.160Z,94.60
2022-12-05T07:09:48.973Z,94.60
2022-12-05T07:12:21.569Z,94.60
2022-12-05T07:14:52.015Z,94.70
2022-12-05T07:17:26.181Z,94.70
2022-12-05T07:19:57.166Z,94.70
2022-12-05T07:22:27.844Z,94.70
2022-12-05T07:24:58.443Z,94.60
2022-12-05T07:27:29.386Z,94.60
2022-12-05T07:30:00.055Z,94.80
2022-12-05T07:32:35.497Z,94.70
2022-12-05T07:35:06.282Z,94.70
2022-12-05T07:37:37.956Z,94.60
2022-12-05T07:40:11.519Z,94.70
2022-12-05T07:42:42.036Z,94.60
2022-12-05T07:45:13.125Z,94.60
2022-12-05T07:47:43.586Z,94.60
2022-12-05T07:50:15.250Z,94.90
2022-12-05T07:52:46.551Z,94.60
2022-12-05T07:55:16.974Z,94.70
2022-12-05T07:57:47.330Z,94.60
2022-12-05T08:00:18.455Z,94.60
2022-12-05T08:02:49.000Z,94.50
2022-12-05T08:05:20.676Z,94.60
2022-12-05T08:07:53.170Z,94.70
2022-12-05T08:10:24.154Z,94.70
2022-12-05T08:12:56.645Z,94.50
2022-12-05T08:15:27.110Z,94.70
2022-12-05T08:20:41.876Z,94.70
2022-12-05T08:23:12.378Z,94.70
2022-12-05T08:25:43.274Z,94.70
2022-12-05T08:28:13.721Z,94.60
2022-12-05T08:30:45.504Z,94.60
2022-12-05T08:33:18.872Z,94.70
2022-12-05T08:35:49.483Z,94.70
2022-12-05T08:38:20.166Z,94.70
2022-12-05T08:40:59.470Z,94.70
2022-12-05T08:43:33.045Z,94.70
2022-12-05T08:46:03.649Z,94.60
2022-12-05T08:48:36.369Z,94.70
2022-12-05T08:51:12.042Z,94.70
2022-12-05T08:53:44.865Z,94.60
2022-12-05T08:56:15.833Z,94.60
2022-12-05T08:58:46.311Z,94.60
2022-12-05T09:01:22.549Z,94.50
2022-12-05T09:03:57.797Z,94.60
2022-12-05T09:06:30.732Z,94.60
2022-12-05T09:09:05.706Z,94.60
2022-12-05T09:14:22.404Z,94.60
2022-12-05T09:16:54.050Z,94.60
2022-12-05T09:19:27.241Z,94.60
2022-12-05T09:21:58.764Z,94.70
2022-12-05T09:24:29.661Z,94.70
2022-12-05T09:27:00.396Z,94.70
2022-12-05T09:29:32.828Z,94.70
2022-12-05T09:32:04.297Z,94.70
2022-12-05T09:34:38.424Z,94.70
2022-12-05T09:37:30.748Z,94.60
2022-12-05T09:40:00.827Z,94.60
2022-12-05T09:43:00.426Z,94.60
2022-12-05T09:45:45.542Z,94.60
2022-12-05T09:48:23.336Z,94.60
2022-12-05T09:51:04.304Z,94.60
2022-12-05T09:53:38.321Z,94.50
2022-12-05T09:56:15.038Z,94.50
2022-12-05T09:58:56.607Z,94.50
2022-12-05T10:01:34.071Z,94.50
2022-12-05T10:04:19.206Z,94.50
2022-12-05T10:07:19.843Z,94.60
2022-12-05T10:10:02.380Z,94.50
2022-12-05T10:12:38.937Z,94.70
2022-12-05T10:15:18.423Z,94.50
2022-12-05T10:18:17.176Z,94.60
2022-12-05T10:20:56.101Z,94.70
2022-12-05T10:24:00.382Z,94.60
2022-12-05T10:29:50.706Z,94.50
2022-12-05T10:32:37.988Z,94.70
2022-12-05T10:35:23.357Z,94.70
2022-12-05T10:38:00.526Z,94.70
2022-12-05T10:40:39.402Z,94.70
2022-12-05T10:43:14.011Z,94.60
2022-12-05T10:45:47.698Z,94.60
2022-12-05T10:48:19.158Z,94.60
2022-12-05T10:50:52.790Z,94.60
2022-12-05T10:53:29.014Z,94.60
2022-12-05T10:56:38.447Z,94.60
2022-12-05T10:59:12.116Z,94.50
2022-12-05T11:01:53.583Z,94.60
2022-12-05T11:04:29.005Z,94.50
2022-12-05T11:07:09.549Z,94.60
2022-12-05T11:09:40.720Z,94.60
2022-12-05T11:12:35.748Z,94.60
2022-12-05T11:15:27.929Z,94.70
2022-12-05T11:18:18.997Z,94.70
2022-12-05T11:20:49.441Z,94.70
2022-12-05T11:23:29.292Z,94.70
2022-12-05T11:26:00.843Z,94.70
2022-12-05T11:28:37.345Z,94.70
2022-12-05T11:31:22.977Z,94.70
2022-12-05T11:34:23.890Z,94.70
2022-12-05T11:37:03.414Z,94.70
2022-12-05T11:39:35.080Z,94.70
2022-12-05T11:43:03.159Z,94.60
2022-12-05T11:45:57.264Z,94.60
2022-12-05T11:48:49.169Z,95.00
2022-12-05T11:51:38.398Z,94.60
2022-12-05T11:54:14.912Z,94.60
2022-12-05T11:57:16.944Z,94.70
2022-12-05T12:00:01.916Z,94.60
2022-12-05T12:03:03.494Z,94.60
2022-12-05T12:05:53.464Z,94.70
2022-12-05T12:08:28.855Z,94.70
2022-12-05T12:11:14.250Z,94.70
2022-12-05T12:14:21.732Z,94.70
2022-12-05T12:17:17.335Z,94.70
2022-12-05T12:19:59.148Z,94.70
2022-12-05T12:23:00.542Z,94.80
2022-12-05T12:25:44.567Z,94.80
2022-12-05T12:28:41.842Z,94.80
2022-12-05T12:31:15.817Z,94.70
2022-12-05T12:33:53.353Z,94.80
2022-12-05T12:36:56.397Z,94.70
2022-12-05T12:39:52.904Z,94.70
2022-12-05T12:42:58.034Z,94.70
2022-12-05T12:46:08.124Z,94.70
2022-12-05T12:49:16.812Z,94.70
2022-12-05T12:51:54.617Z,94.70
2022-12-05T12:55:07.715Z,94.60
2022-12-05T12:57:49.275Z,94.50
2022-12-05T13:00:39.917Z,94.70
2022-12-05T13:03:37.938Z,94.50
2022-12-05T13:06:15.670Z,94.70
2022-12-05T13:09:01.522Z,94.60
2022-12-05T13:11:39.545Z,94.70
2022-12-05T13:14:28.328Z,94.70
2022-12-05T13:17:00.652Z,94.70
2022-12-05T13:19:52.964Z,94.50
2022-12-05T13:22:25.664Z,94.40
2022-12-05T13:24:57.577Z,94.70
2022-12-05T13:27:30.237Z,94.90
2022-12-05T13:30:09.398Z,94.50
2022-12-05T13:32:45.672Z,94.80
2022-12-05T13:35:50.727Z,94.60
2022-12-05T13:38:57.108Z,94.90
2022-12-05T13:44:57.887Z,94.50
2022-12-05T13:48:04.164Z,94.80
2022-12-05T13:50:45.866Z,94.50
2022-12-05T13:53:28.625Z,94.80
2022-12-05T13:56:08.582Z,94.90
2022-12-05T13:58:56.415Z,94.70
2022-12-05T14:01:38.100Z,94.50
2022-12-05T14:04:51.602Z,94.50
2022-12-05T14:07:52.212Z,94.50
2022-12-05T14:10:36.022Z,94.20
2022-12-05T14:13:20.176Z,94.40
2022-12-05T14:16:12.043Z,94.30
2022-12-05T14:19:09.453Z,94.20
2022-12-05T14:21:48.534Z,94.90
2022-12-05T14:24:48.566Z,94.10
2022-12-05T14:27:42.144Z,94.70
2022-12-05T14:30:20.023Z,94.70
2022-12-05T14:32:52.982Z,94.60
2022-12-05T14:35:28.367Z,94.50
2022-12-05T14:38:13.759Z,94.30
2022-12-05T14:40:48.027Z,94.30
2022-12-05T14:43:30.293Z,94.50
2022-12-05T14:46:16.764Z,94.60
2022-12-05T14:48:57.246Z,94.70
2022-12-05T14:51:34.574Z,94.80
2022-12-05T14:54:17.373Z,94.60
2022-12-05T14:57:11.567Z,94.60
2022-12-05T14:59:55.236Z,94.50
2022-12-05T15:02:33.090Z,94.50
2022-12-05T15:05:32.739Z,94.50
2022-12-05T15:08:07.230Z,94.60
2022-12-05T15:10:41.020Z,94.40
2022-12-05T15:13:28.882Z,94.60
2022-12-05T15:16:21.737Z,94.50
2022-12-05T15:18:57.794Z,94.50
2022-12-05T15:21:57.294Z,94.50
2022-12-05T15:24:27.866Z,94.50
2022-12-05T15:27:00.180Z,94.40
2022-12-05T15:29:35.192Z,94.40
2022-12-05T15:32:17.658Z,94.50
2022-12-05T15:35:00.595Z,94.40
2022-12-05T15:37:45.516Z,94.40
2022-12-05T15:40:25.667Z,94.40
2022-12-05T15:43:03.927Z,94.40
2022-12-05T15:46:09.966Z,94.50
2022-12-05T15:48:40.754Z,94.50
2022-12-05T15:51:11.538Z,94.40
2022-12-05T15:53:49.865Z,94.50
2022-12-05T15:56:29.106Z,94.50
2022-12-05T15:59:35.091Z,94.50
2022-12-05T16:02:20.206Z,94.50
2022-12-05T16:04:58.103Z,94.50
2022-12-05T16:07:33.621Z,94.50
2022-12-05T16:10:04.821Z,94.50
2022-12-05T16:12:43.137Z,94.60
2022-12-05T16:15:26.682Z,94.60
2022-12-05T16:18:01.492Z,94.50
2022-12-05T16:20:38.248Z,94.80
2022-12-05T16:23:27.503Z,94.50
2022-12-05T16:29:05.757Z,94.40
2022-12-05T16:31:40.278Z,94.50
2022-12-05T16:34:19.519Z,94.40
2022-12-05T16:36:57.710Z,94.40
2022-12-05T16:39:30.289Z,94.50
2022-12-05T16:42:01.101Z,94.40
2022-12-05T16:44:49.755Z,94.40
2022-12-05T16:47:46.240Z,94.50
2022-12-05T16:50:39.672Z,94.40
2022-12-05T16:53:13.410Z,94.50
2022-12-05T16:55:45.981Z,94.50
2022-12-05T16:58:24.242Z,94.50
2022-12-05T17:01:00.637Z,94.50
2022-12-05T17:03:41.193Z,94.30
2022-12-05T17:06:11.702Z,94.50
2022-12-05T17:08:46.034Z,94.40
2022-12-05T17:11:25.384Z,94.50
2022-12-05T17:16:42.502Z,94.60
2022-12-05T17:19:16.135Z,94.60
2022-12-05T17:21:49.974Z,94.60
2022-12-05T17:24:22.005Z,94.50
2022-12-05T17:26:55.470Z,94.60
2022-12-05T17:29:27.240Z,94.60
2022-12-05T17:32:00.351Z,94.60
2022-12-05T17:34:31.478Z,94.60
2022-12-05T17:37:02.331Z,94.60
2022-12-05T17:39:32.758Z,94.60
2022-12-05T17:42:07.124Z,94.50
2022-12-05T17:44:37.741Z,94.50
2022-12-05T17:47:08.598Z,94.50
2022-12-05T17:49:39.275Z,94.50
2022-12-05T17:52:21.387Z,94.50
2022-12-05T17:54:54.372Z,94.50
2022-12-05T17:57:25.491Z,94.40
2022-12-05T17:59:56.172Z,94.40
2022-12-05T18:02:28.175Z,94.40
2022-12-05T18:04:59.279Z,94.40
2022-12-05T18:07:33.152Z,94.30
2022-12-05T18:10:07.010Z,94.40
2022-12-05T18:12:40.453Z,94.40
2022-12-05T18:15:13.305Z,94.20
2022-12-05T18:17:44.970Z,94.50
2022-12-05T18:20:17.712Z,94.40
2022-12-05T18:22:50.013Z,94.50
2022-12-05T18:25:21.426Z,94.40
2022-12-05T18:27:52.463Z,94.50
2022-12-05T18:30:23.195Z,94.40
2022-12-05T18:32:53.738Z,94.40
2022-12-05T18:35:41.464Z,94.50
2022-12-05T18:38:15.426Z,94.40
2022-12-05T18:40:45.438Z,94.30
2022-12-05T18:43:16.459Z,94.40
2022-12-05T18:45:48.203Z,94.60
2022-12-05T18:48:38.077Z,94.40
2022-12-05T18:51:21.062Z,94.40
2022-12-05T18:53:53.892Z,94.30
2022-12-05T18:59:22.739Z,94.30
2022-12-05T19:01:53.612Z,94.30
2022-12-05T19:04:25.017Z,94.30
2022-12-05T19:07:00.796Z,94.30
2022-12-05T19:09:33.583Z,94.30
2022-12-05T19:12:04.539Z,94.40
2022-12-05T19:14:36.437Z,94.30
2022-12-05T19:17:07.499Z,94.40
2022-12-05T19:19:38.380Z,94.60
2022-12-05T19:22:09.026Z,94.40
2022-12-05T19:24:39.533Z,94.40
2022-12-05T19:27:10.288Z,94.40
2022-12-05T19:29:40.973Z,94.50
2022-12-05T19:32:13.090Z,94.50
2022-12-05T19:34:43.949Z,94.50
2022-12-05T19:37:14.418Z,94.50
2022-12-05T19:39:45.790Z,94.40
2022-12-05T19:42:19.157Z,94.50
2022-12-05T19:44:50.623Z,94.50
2022-12-05T19:47:21.238Z,94.50
2022-12-05T19:49:51.810Z,94.50
2022-12-05T19:52:22.459Z,94.50
2022-12-05T19:54:53.089Z,94.50
2022-12-05T19:57:23.785Z,94.50
2022-12-05T19:59:54.596Z,94.50
2022-12-05T20:02:26.456Z,94.50
2022-12-05T20:04:57.149Z,94.50
2022-12-05T20:07:28.975Z,94.50
2022-12-05T20:09:59.862Z,94.50
2022-12-05T20:12:50.195Z,94.50
2022-12-05T20:15:20.888Z,94.50
2022-12-05T20:17:53.322Z,94.50
2022-12-05T20:20:24.148Z,94.50
2022-12-05T20:22:55.630Z,94.50
2022-12-05T20:25:26.080Z,94.50
2022-12-05T20:27:57.005Z,94.50
2022-12-05T20:30:27.763Z,94.50
2022-12-05T20:32:58.537Z,94.40
2022-12-05T20:35:29.106Z,94.40
2022-12-05T20:37:59.578Z,94.50
2022-12-05T20:40:30.286Z,94.50
2022-12-05T20:43:02.072Z,94.40
2022-12-05T20:45:32.900Z,94.50
2022-12-05T20:48:03.645Z,94.50
2022-12-05T20:50:36.310Z,94.50
2022-12-05T20:53:07.051Z,94.60
2022-12-05T20:55:37.520Z,94.60
2022-12-05T20:58:07.925Z,94.50
2022-12-05T21:00:38.421Z,94.50
2022-12-05T21:03:11.695Z,94.60
2022-12-05T21:05:44.991Z,94.60
2022-12-05T21:08:15.722Z,94.50
2022-12-05T21:10:53.807Z,94.50
2022-12-05T21:13:24.265Z,94.50
2022-12-05T21:15:54.927Z,94.50
2022-12-05T21:18:25.595Z,94.50
2022-12-05T21:21:04.686Z,94.50
2022-12-05T21:23:36.325Z,94.50
2022-12-05T21:26:09.024Z,94.50
2022-12-05T21:28:39.638Z,94.50
2022-12-05T21:31:14.271Z,94.50
2022-12-05T21:33:48.603Z,94.50
2022-12-05T21:36:20.408Z,94.30
2022-12-05T21:38:55.706Z,94.70
2022-12-05T21:41:28.027Z,94.60
2022-12-05T21:43:58.929Z,94.50
2022-12-05T21:46:30.090Z,94.40
2022-12-05T21:49:04.043Z,94.70
2022-12-05T21:51:34.599Z,94.60
2022-12-05T21:54:05.316Z,94.60
2022-12-05T21:56:36.003Z,94.60
2022-12-05T21:59:06.691Z,94.60
2022-12-05T22:01:37.452Z,94.50
2022-12-05T22:04:07.934Z,94.50
2022-12-05T22:06:38.547Z,94.50
2022-12-05T22:09:09.034Z,94.50
2022-12-05T22:11:39.528Z,94.50
2022-12-05T22:14:10.008Z,94.50
2022-12-05T22:16:40.516Z,94.50
2022-12-05T22:19:10.893Z,94.50
2022-12-05T22:21:41.625Z,94.40
2022-12-05T22:24:12.454Z,94.40
2022-12-05T22:27:02.811Z,94.30
2022-12-05T22:29:33.965Z,94.30
2022-12-05T22:32:04.733Z,94.40
2022-12-05T22:34:35.251Z,94.40
2022-12-05T22:37:06.792Z,94.40
2022-12-05T22:39:37.448Z,94.40
2022-12-05T22:42:08.131Z,94.40
2022-12-05T22:44:38.768Z,94.50
2022-12-05T22:47:09.233Z,94.50
2022-12-05T22:49:39.881Z,94.50
2022-12-05T22:52:10.564Z,94.50
2022-12-05T22:54:41.183Z,94.60
2022-12-05T22:57:34.388Z,94.50
2022-12-05T23:00:08.873Z,94.50
2022-12-05T23:02:39.497Z,94.50
2022-12-05T23:05:10.317Z,94.50
2022-12-05T23:07:40.766Z,94.60
2022-12-05T23:10:11.591Z,94.60
2022-12-05T23:12:42.314Z,94.60
2022-12-05T23:15:14.770Z,94.60
2022-12-05T23:17:45.235Z,94.60
2022-12-05T23:20:15.968Z,94.60
2022-12-05T23:22:46.706Z,94.60
2022-12-05T23:25:17.493Z,94.60
2022-12-05T23:27:48.079Z,94.60
2022-12-05T23:30:19.090Z,94.60
2022-12-05T23:32:49.823Z,94.60
2022-12-05T23:35:20.294Z,94.60
2022-12-05T23:37:50.893Z,94.60
2022-12-05T23:40:21.358Z,94.60
2022-12-05T23:42:52.286Z,94.60
2022-12-05T23:45:23.206Z,94.50
2022-12-05T23:47:59.437Z,94.50
2022-12-05T23:50:32.438Z,94.50
2022-12-05T23:53:02.916Z,94.50
2022-12-05T23:55:36.906Z,94.50
2022-12-05T23:58:07.135Z,94.50
